createdAt,value
2018-02-15T00:01:02.879Z,1017.63
2018-02-15T00:02:12.830Z,1017.65
2018-02-15T00:03:22.784Z,1017.61
2018-02-15T00:04:32.750Z,1017.64
2018-02-15T00:05:42.184Z,1017.66
2018-02-15T00:06:52.123Z,1017.67
2018-02-15T00:08:02.085Z,1017.64
2018-02-15T00:09:11.778Z,1017.69
2018-02-15T00:10:21.723Z,1017.63
2018-02-15T00:11:31.416Z,1017.59
2018-02-15T00:12:41.363Z,1017.63
2018-02-15T00:13:51.351Z,1017.62
2018-02-15T00:15:01.041Z,1017.55
2018-02-15T00:16:10.993Z,1017.61
2018-02-15T00:17:20.933Z,1017.62
2018-02-15T00:18:30.882Z,1017.66
2018-02-15T00:19:40.827Z,1017.62
2018-02-15T00:20:50.781Z,1017.62
2018-02-15T00:22:00.725Z,1017.58
2018-02-15T00:23:10.666Z,1017.58
2018-02-15T00:24:20.632Z,1017.6
2018-02-15T00:25:30.586Z,1017.55
2018-02-15T00:26:40.546Z,1017.58
2018-02-15T00:27:50.487Z,1017.64
2018-02-15T00:29:00.254Z,1017.63
2018-02-15T00:30:09.425Z,1017.61
2018-02-15T00:31:19.393Z,1017.66
2018-02-15T00:32:28.816Z,1017.66
2018-02-15T00:33:38.309Z,1017.69
2018-02-15T00:34:48.256Z,1017.66
2018-02-15T00:35:58.217Z,1017.7
2018-02-15T00:37:08.179Z,1017.69
2018-02-15T00:38:18.129Z,1017.71
2018-02-15T00:39:27.566Z,1017.67
2018-02-15T00:40:36.992Z,1017.7
2018-02-15T00:41:46.696Z,1017.67
2018-02-15T00:42:56.391Z,1017.68
2018-02-15T00:44:06.338Z,1017.68
2018-02-15T00:45:16.023Z,1017.67
2018-02-15T00:46:25.965Z,1017.66
2018-02-15T00:47:35.907Z,1017.66
2018-02-15T00:48:45.859Z,1017.65
2018-02-15T00:49:55.812Z,1017.63
2018-02-15T00:51:05.514Z,1017.6
2018-02-15T00:52:15.461Z,1017.59
2018-02-15T00:53:25.142Z,1017.6
2018-02-15T00:54:34.848Z,1017.63
2018-02-15T00:55:44.311Z,1017.65
2018-02-15T00:56:54.006Z,1017.64
2018-02-15T00:58:03.950Z,1017.59
2018-02-15T00:59:13.639Z,1017.61
2018-02-15T01:00:23.379Z,1017.56
2018-02-15T01:01:33.327Z,1017.62
2018-02-15T01:02:43.293Z,1017.67
2018-02-15T01:03:52.994Z,1017.66
2018-02-15T01:05:02.939Z,1017.61
2018-02-15T01:06:12.881Z,1017.64
2018-02-15T01:07:22.317Z,1017.62
2018-02-15T01:08:32.052Z,1017.59
2018-02-15T01:09:42.015Z,1017.62
2018-02-15T01:10:51.961Z,1017.6
2018-02-15T01:12:01.641Z,1017.61
2018-02-15T01:13:11.579Z,1017.51
2018-02-15T01:14:21.265Z,1017.52
2018-02-15T01:15:31.205Z,1017.55
2018-02-15T01:16:41.156Z,1017.52
2018-02-15T01:17:50.855Z,1017.53
2018-02-15T01:19:00.815Z,1017.52
2018-02-15T01:20:10.760Z,1017.49
2018-02-15T01:21:20.722Z,1017.5
2018-02-15T01:22:30.672Z,1017.51
2018-02-15T01:23:40.375Z,1017.53
2018-02-15T01:24:50.317Z,1017.51
2018-02-15T01:26:00.265Z,1017.47
2018-02-15T01:27:09.977Z,1017.49
2018-02-15T01:28:19.937Z,1017.47
2018-02-15T01:29:29.915Z,1017.44
2018-02-15T01:30:39.613Z,1017.43
2018-02-15T01:31:49.305Z,1017.49
2018-02-15T01:32:59.268Z,1017.52
2018-02-15T01:34:09.211Z,1017.53
2018-02-15T01:35:19.159Z,1017.5
2018-02-15T01:36:29.097Z,1017.5
2018-02-15T01:37:38.800Z,1017.46
2018-02-15T01:38:48.752Z,1017.48
2018-02-15T01:39:58.448Z,1017.5
2018-02-15T01:41:08.137Z,1017.55
2018-02-15T01:42:18.100Z,1017.54
2018-02-15T01:43:28.059Z,1017.51
2018-02-15T01:44:37.742Z,1017.54
2018-02-15T01:45:47.689Z,1017.55
2018-02-15T01:46:57.627Z,1017.52
2018-02-15T01:48:07.344Z,1017.47
2018-02-15T01:49:17.034Z,1017.44
2018-02-15T01:50:27.028Z,1017.43
2018-02-15T01:51:36.988Z,1017.45
2018-02-15T01:52:46.935Z,1017.47
2018-02-15T01:53:56.625Z,1017.38
2018-02-15T01:55:06.583Z,1017.44
2018-02-15T01:56:16.537Z,1017.42
2018-02-15T01:57:25.969Z,1017.46
2018-02-15T01:58:35.651Z,1017.36
2018-02-15T01:59:45.126Z,1017.32
2018-02-15T02:00:54.870Z,1017.35
2018-02-15T02:02:04.555Z,1017.29
2018-02-15T02:03:14.496Z,1017.29
2018-02-15T02:04:24.195Z,1017.22
2018-02-15T02:05:34.168Z,1017.22
2018-02-15T02:06:44.121Z,1017.23
2018-02-15T02:07:53.808Z,1017.18
2018-02-15T02:09:03.493Z,1017.15
2018-02-15T02:10:13.462Z,1017.12
2018-02-15T02:11:23.421Z,1017.08
2018-02-15T02:12:32.863Z,1017.09
2018-02-15T02:13:42.575Z,1017.08
2018-02-15T02:14:52.533Z,1017.1
2018-02-15T02:16:02.229Z,1017.13
2018-02-15T02:17:12.170Z,1017.14
2018-02-15T02:18:21.863Z,1017.13
2018-02-15T02:19:31.554Z,1017.12
2018-02-15T02:20:41.517Z,1017.06
2018-02-15T02:21:51.470Z,1017.07
2018-02-15T02:23:01.422Z,1017.11
2018-02-15T02:24:11.368Z,1017.1
2018-02-15T02:25:21.329Z,1017.1
2018-02-15T02:26:31.019Z,1017.18
2018-02-15T02:27:40.964Z,1017.2
2018-02-15T02:28:50.660Z,1017.18
2018-02-15T02:30:00.104Z,1017.21
2018-02-15T02:31:09.808Z,1017.23
2018-02-15T02:32:19.501Z,1017.24
2018-02-15T02:33:29.197Z,1017.27
2018-02-15T02:34:39.141Z,1017.3
2018-02-15T02:35:49.089Z,1017.36
2018-02-15T02:36:58.780Z,1017.33
2018-02-15T02:38:08.748Z,1017.31
2018-02-15T02:39:18.446Z,1017.3
2018-02-15T02:40:28.134Z,1017.26
2018-02-15T02:41:37.830Z,1017.3
2018-02-15T02:42:47.784Z,1017.28
2018-02-15T02:43:57.750Z,1017.32
2018-02-15T02:45:07.702Z,1017.38
2018-02-15T02:46:17.682Z,1017.35
2018-02-15T02:47:27.644Z,1017.35
2018-02-15T02:48:37.343Z,1017.33
2018-02-15T02:49:47.289Z,1017.39
2018-02-15T02:50:56.996Z,1017.34
2018-02-15T02:52:06.958Z,1017.37
2018-02-15T02:53:16.658Z,1017.31
2018-02-15T02:54:26.622Z,1017.28
2018-02-15T02:55:36.574Z,1017.26
2018-02-15T02:56:46.260Z,1017.22
2018-02-15T02:57:55.966Z,1017.2
2018-02-15T02:59:05.655Z,1017.22
2018-02-15T03:00:15.617Z,1017.19
2018-02-15T03:01:25.570Z,1017.2
2018-02-15T03:02:35.264Z,1017.21
2018-02-15T03:03:45.216Z,1017.22
2018-02-15T03:04:55.162Z,1017.23
2018-02-15T03:06:05.120Z,1017.23
2018-02-15T03:07:15.085Z,1017.16
2018-02-15T03:08:25.034Z,1017.16
2018-02-15T03:09:34.973Z,1017.15
2018-02-15T03:10:44.655Z,1017.15
2018-02-15T03:11:54.595Z,1017.14
2018-02-15T03:13:04.541Z,1017.19
2018-02-15T03:14:14.494Z,1017.13
2018-02-15T03:15:24.177Z,1017.13
2018-02-15T03:16:34.133Z,1017.1
2018-02-15T03:17:44.086Z,1017.05
2018-02-15T03:18:54.027Z,1017.06
2018-02-15T03:20:03.711Z,1017.03
2018-02-15T03:21:13.404Z,1017.04
2018-02-15T03:22:23.366Z,1017.09
2018-02-15T03:23:33.324Z,1017.03
2018-02-15T03:24:43.006Z,1017.02
2018-02-15T03:25:52.959Z,1017
2018-02-15T03:27:02.668Z,1016.97
2018-02-15T03:28:12.622Z,1016.97
2018-02-15T03:29:22.063Z,1016.94
2018-02-15T03:30:32.002Z,1016.83
2018-02-15T03:31:41.956Z,1016.81
2018-02-15T03:32:51.646Z,1016.77
2018-02-15T03:34:01.615Z,1016.77
2018-02-15T03:35:11.305Z,1016.75
2018-02-15T03:36:20.993Z,1016.74
2018-02-15T03:37:30.680Z,1016.77
2018-02-15T03:38:40.674Z,1016.75
2018-02-15T03:39:50.362Z,1016.77
2018-02-15T03:41:00.056Z,1016.71
2018-02-15T03:42:09.750Z,1016.78
2018-02-15T03:43:19.441Z,1016.74
2018-02-15T03:44:29.140Z,1016.76
2018-02-15T03:45:38.830Z,1016.74
2018-02-15T03:46:48.789Z,1016.72
2018-02-15T03:47:58.736Z,1016.75
2018-02-15T03:49:08.687Z,1016.78
2018-02-15T03:50:18.639Z,1016.76
2018-02-15T03:51:28.600Z,1016.77
2018-02-15T03:52:38.549Z,1016.82
2018-02-15T03:53:48.251Z,1016.81
2018-02-15T03:54:57.687Z,1016.79
2018-02-15T03:56:07.661Z,1016.77
2018-02-15T03:57:17.600Z,1016.83
2018-02-15T03:58:27.539Z,1016.81
2018-02-15T03:59:37.514Z,1016.79
2018-02-15T04:00:47.473Z,1016.8
2018-02-15T04:01:57.158Z,1016.79
2018-02-15T04:03:06.339Z,1016.76
2018-02-15T04:04:16.283Z,1016.76
2018-02-15T04:05:26.241Z,1016.79
2018-02-15T04:06:35.665Z,1016.75
2018-02-15T04:07:45.618Z,1016.73
2018-02-15T04:08:55.049Z,1016.76
2018-02-15T04:10:04.736Z,1016.72
2018-02-15T04:11:14.676Z,1016.72
2018-02-15T04:12:24.674Z,1016.75
2018-02-15T04:13:34.625Z,1016.72
2018-02-15T04:14:44.570Z,1016.74
2018-02-15T04:15:54.518Z,1016.68
2018-02-15T04:17:04.470Z,1016.71
2018-02-15T04:18:13.900Z,1016.71
2018-02-15T04:19:23.584Z,1016.72
2018-02-15T04:20:33.524Z,1016.71
2018-02-15T04:21:43.476Z,1016.69
2018-02-15T04:22:53.165Z,1016.67
2018-02-15T04:24:03.153Z,1016.68
2018-02-15T04:25:13.115Z,1016.63
2018-02-15T04:26:22.535Z,1016.61
2018-02-15T04:27:32.497Z,1016.64
2018-02-15T04:28:42.186Z,1016.56
2018-02-15T04:29:51.873Z,1016.59
2018-02-15T04:31:01.570Z,1016.59
2018-02-15T04:32:11.268Z,1016.58
2018-02-15T04:33:20.954Z,1016.61
2018-02-15T04:34:30.902Z,1016.64
2018-02-15T04:35:40.597Z,1016.63
2018-02-15T04:36:50.278Z,1016.68
2018-02-15T04:37:59.975Z,1016.68
2018-02-15T04:39:09.930Z,1016.68
2018-02-15T04:40:19.624Z,1016.7
2018-02-15T04:41:29.577Z,1016.64
2018-02-15T04:42:39.269Z,1016.64
2018-02-15T04:43:48.960Z,1016.64
2018-02-15T04:44:58.638Z,1016.58
2018-02-15T04:46:08.595Z,1016.56
2018-02-15T04:47:18.547Z,1016.56
2018-02-15T04:48:28.237Z,1016.57
2018-02-15T04:49:38.204Z,1016.58
2018-02-15T04:50:47.636Z,1016.66
2018-02-15T04:51:57.583Z,1016.67
2018-02-15T04:53:07.536Z,1016.66
2018-02-15T04:54:17.494Z,1016.65
2018-02-15T04:55:27.443Z,1016.72
2018-02-15T04:56:37.395Z,1016.71
2018-02-15T04:57:47.338Z,1016.66
2018-02-15T04:58:57.283Z,1016.68
2018-02-15T05:00:06.718Z,1016.66
2018-02-15T05:01:16.669Z,1016.67
2018-02-15T05:02:26.616Z,1016.63
2018-02-15T05:03:36.597Z,1016.65
2018-02-15T05:04:46.543Z,1016.66
2018-02-15T05:05:56.501Z,1016.68
2018-02-15T05:07:06.477Z,1016.73
2018-02-15T05:08:16.418Z,1016.74
2018-02-15T05:09:26.380Z,1016.82
2018-02-15T05:10:35.828Z,1016.79
2018-02-15T05:11:45.797Z,1016.83
2018-02-15T05:12:55.763Z,1016.79
2018-02-15T05:14:05.719Z,1016.71
2018-02-15T05:15:15.682Z,1016.74
2018-02-15T05:16:25.637Z,1016.65
2018-02-15T05:17:35.581Z,1016.7
2018-02-15T05:18:45.531Z,1016.73
2018-02-15T05:19:55.482Z,1016.67
2018-02-15T05:21:05.422Z,1016.69
2018-02-15T05:22:15.390Z,1016.7
2018-02-15T05:23:25.343Z,1016.67
2018-02-15T05:24:35.290Z,1016.7
2018-02-15T05:25:45.231Z,1016.69
2018-02-15T05:26:55.189Z,1016.7
2018-02-15T05:28:04.881Z,1016.67
2018-02-15T05:29:14.835Z,1016.67
2018-02-15T05:30:24.791Z,1016.65
2018-02-15T05:31:34.474Z,1016.66
2018-02-15T05:32:44.421Z,1016.68
2018-02-15T05:33:54.118Z,1016.58
2018-02-15T05:35:04.061Z,1016.66
2018-02-15T05:36:14.006Z,1016.64
2018-02-15T05:37:23.693Z,1016.59
2018-02-15T05:38:33.655Z,1016.64
2018-02-15T05:39:43.606Z,1016.59
2018-02-15T05:40:53.593Z,1016.61
2018-02-15T05:42:03.605Z,1016.67
2018-02-15T05:43:13.546Z,1016.63
2018-02-15T05:44:23.230Z,1016.62
2018-02-15T05:45:33.174Z,1016.63
2018-02-15T05:46:43.134Z,1016.68
2018-02-15T05:47:53.078Z,1016.7
2018-02-15T05:49:02.784Z,1016.65
2018-02-15T05:50:12.749Z,1016.64
2018-02-15T05:51:21.932Z,1016.66
2018-02-15T05:52:31.895Z,1016.69
2018-02-15T05:53:41.350Z,1016.65
2018-02-15T05:54:51.034Z,1016.6
2018-02-15T05:56:00.991Z,1016.57
2018-02-15T05:57:10.936Z,1016.61
2018-02-15T05:58:20.887Z,1016.56
2018-02-15T05:59:30.315Z,1016.58
2018-02-15T06:00:40.260Z,1016.56
2018-02-15T06:01:50.225Z,1016.51
2018-02-15T06:03:00.178Z,1016.54
2018-02-15T06:04:09.883Z,1016.53
2018-02-15T06:05:19.569Z,1016.61
2018-02-15T06:06:29.263Z,1016.54
2018-02-15T06:07:39.206Z,1016.52
2018-02-15T06:08:49.183Z,1016.48
2018-02-15T06:09:59.122Z,1016.52
2018-02-15T06:11:09.061Z,1016.43
2018-02-15T06:12:18.740Z,1016.42
2018-02-15T06:13:28.429Z,1016.41
2018-02-15T06:14:38.378Z,1016.39
2018-02-15T06:15:48.322Z,1016.37
2018-02-15T06:16:58.011Z,1016.41
2018-02-15T06:18:07.957Z,1016.36
2018-02-15T06:19:17.643Z,1016.37
2018-02-15T06:20:27.590Z,1016.37
2018-02-15T06:21:37.274Z,1016.36
2018-02-15T06:22:47.240Z,1016.39
2018-02-15T06:23:56.918Z,1016.41
2018-02-15T06:25:06.875Z,1016.43
2018-02-15T06:26:16.564Z,1016.33
2018-02-15T06:27:26.265Z,1016.39
2018-02-15T06:28:36.212Z,1016.4
2018-02-15T06:29:46.214Z,1016.41
2018-02-15T06:30:55.899Z,1016.38
2018-02-15T06:32:05.600Z,1016.33
2018-02-15T06:33:15.546Z,1016.34
2018-02-15T06:34:25.311Z,1016.37
2018-02-15T06:35:35.289Z,1016.36
2018-02-15T06:36:45.247Z,1016.32
2018-02-15T06:37:55.230Z,1016.3
2018-02-15T06:39:04.669Z,1016.26
2018-02-15T06:40:14.607Z,1016.33
2018-02-15T06:41:24.305Z,1016.33
2018-02-15T06:42:34.269Z,1016.26
2018-02-15T06:43:44.270Z,1016.28
2018-02-15T06:44:54.213Z,1016.24
2018-02-15T06:46:03.698Z,1016.24
2018-02-15T06:47:13.654Z,1016.25
2018-02-15T06:48:23.604Z,1016.27
2018-02-15T06:49:33.559Z,1016.24
2018-02-15T06:50:43.522Z,1016.29
2018-02-15T06:51:53.482Z,1016.25
2018-02-15T06:53:03.457Z,1016.24
2018-02-15T06:54:13.420Z,1016.25
2018-02-15T06:55:23.365Z,1016.3
2018-02-15T06:56:33.074Z,1016.27
2018-02-15T06:57:43.065Z,1016.28
2018-02-15T06:58:52.750Z,1016.29
2018-02-15T07:00:02.709Z,1016.33
2018-02-15T07:01:12.427Z,1016.32
2018-02-15T07:02:22.390Z,1016.33
2018-02-15T07:03:32.341Z,1016.31
2018-02-15T07:04:42.293Z,1016.29
2018-02-15T07:05:52.259Z,1016.27
2018-02-15T07:07:02.215Z,1016.25
2018-02-15T07:08:11.905Z,1016.27
2018-02-15T07:09:21.340Z,1016.21
2018-02-15T07:10:31.322Z,1016.16
2018-02-15T07:11:41.026Z,1016.18
2018-02-15T07:12:50.731Z,1016.22
2018-02-15T07:14:00.467Z,1016.15
2018-02-15T07:15:10.414Z,1016.2
2018-02-15T07:16:20.486Z,1016.28
2018-02-15T07:17:30.435Z,1016.33
2018-02-15T07:18:40.385Z,1016.31
2018-02-15T07:19:49.833Z,1016.29
2018-02-15T07:20:59.538Z,1016.23
2018-02-15T07:22:09.229Z,1016.24
2018-02-15T07:23:18.956Z,1016.22
2018-02-15T07:24:28.895Z,1016.24
2018-02-15T07:25:38.593Z,1016.31
2018-02-15T07:26:48.545Z,1016.34
2018-02-15T07:27:58.255Z,1016.27
2018-02-15T07:29:07.936Z,1016.33
2018-02-15T07:30:17.638Z,1016.31
2018-02-15T07:31:27.649Z,1016.3
2018-02-15T07:32:37.352Z,1016.28
2018-02-15T07:33:46.798Z,1016.24
2018-02-15T07:34:56.764Z,1016.26
2018-02-15T07:36:06.721Z,1016.25
2018-02-15T07:37:16.423Z,1016.2
2018-02-15T07:38:26.386Z,1016.21
2018-02-15T07:39:36.350Z,1016.1
2018-02-15T07:40:46.305Z,1016.12
2018-02-15T07:41:55.741Z,1016.1
2018-02-15T07:43:05.690Z,1016.06
2018-02-15T07:44:15.639Z,1016.05
2018-02-15T07:45:25.327Z,1016.09
2018-02-15T07:46:35.280Z,1016.01
2018-02-15T07:47:45.252Z,1016.05
2018-02-15T07:48:55.208Z,1016.02
2018-02-15T07:50:05.177Z,1016.07
2018-02-15T07:51:15.129Z,1016.16
2018-02-15T07:52:25.091Z,1016.07
2018-02-15T07:53:34.802Z,1016.01
2018-02-15T07:54:44.495Z,1016.05
2018-02-15T07:55:54.458Z,1016.03
2018-02-15T07:57:04.430Z,1015.96
2018-02-15T07:58:14.393Z,1015.96
2018-02-15T07:59:24.356Z,1015.96
2018-02-15T08:00:34.318Z,1015.98
2018-02-15T08:01:44.273Z,1015.98
2018-02-15T08:02:54.251Z,1015.97
2018-02-15T08:04:04.232Z,1015.96
2018-02-15T08:05:14.199Z,1015.97
2018-02-15T08:06:24.148Z,1015.98
2018-02-15T08:07:34.098Z,1015.92
2018-02-15T08:08:44.064Z,1015.9
2018-02-15T08:09:54.069Z,1015.84
2018-02-15T08:11:04.039Z,1015.84
2018-02-15T08:12:13.996Z,1015.87
2018-02-15T08:13:23.705Z,1015.8
2018-02-15T08:14:33.141Z,1015.87
2018-02-15T08:15:42.851Z,1015.89
2018-02-15T08:16:52.284Z,1015.81
2018-02-15T08:18:02.238Z,1015.81
2018-02-15T08:19:12.216Z,1015.87
2018-02-15T08:20:22.187Z,1015.78
2018-02-15T08:21:32.139Z,1015.79
2018-02-15T08:22:42.108Z,1015.82
2018-02-15T08:23:52.132Z,1015.93
2018-02-15T08:25:02.112Z,1015.9
2018-02-15T08:26:11.828Z,1015.92
2018-02-15T08:27:21.534Z,1015.94
2018-02-15T08:28:31.493Z,1015.98
2018-02-15T08:29:41.464Z,1015.95
2018-02-15T08:30:51.415Z,1015.98
2018-02-15T08:32:01.391Z,1015.98
2018-02-15T08:33:11.344Z,1016.01
2018-02-15T08:34:21.302Z,1016
2018-02-15T08:35:31.265Z,1015.99
2018-02-15T08:36:41.006Z,1015.99
2018-02-15T08:37:50.734Z,1016.05
2018-02-15T08:39:00.816Z,1016.07
2018-02-15T08:40:10.810Z,1016.14
2018-02-15T08:41:20.775Z,1016.11
2018-02-15T08:42:30.745Z,1016.11
2018-02-15T08:43:40.721Z,1016.06
2018-02-15T08:44:50.700Z,1016.04
2018-02-15T08:46:00.688Z,1016.09
2018-02-15T08:47:10.401Z,1015.98
2018-02-15T08:48:20.365Z,1016.06
2018-02-15T08:49:30.080Z,1016.03
2018-02-15T08:50:40.052Z,1016.07
2018-02-15T08:51:49.752Z,1016.05
2018-02-15T08:52:59.717Z,1016.03
2018-02-15T08:54:09.668Z,1016.06
2018-02-15T08:55:19.640Z,1016.1
2018-02-15T08:56:29.620Z,1016.01
2018-02-15T08:57:39.583Z,1016.04
2018-02-15T08:58:49.295Z,1016.08
2018-02-15T08:59:59.040Z,1016.09
2018-02-15T09:01:09.073Z,1016.08
2018-02-15T09:02:18.778Z,1016.08
2018-02-15T09:03:28.493Z,1016.12
2018-02-15T09:04:38.200Z,1016.12
2018-02-15T09:05:47.898Z,1016.11
2018-02-15T09:06:57.863Z,1016.15
2018-02-15T09:08:07.583Z,1016.16
2018-02-15T09:09:17.535Z,1016.17
2018-02-15T09:10:27.502Z,1016.24
2018-02-15T09:11:37.556Z,1016.19
2018-02-15T09:12:47.511Z,1016.13
2018-02-15T09:13:57.473Z,1016.09
2018-02-15T09:15:07.453Z,1016.11
2018-02-15T09:16:17.432Z,1016.13
2018-02-15T09:17:27.142Z,1016.18
2018-02-15T09:18:37.102Z,1016.14
2018-02-15T09:19:47.072Z,1016.13
2018-02-15T09:20:57.047Z,1016.12
2018-02-15T09:22:07.015Z,1016.13
2018-02-15T09:23:17.030Z,1016.09
2018-02-15T09:24:26.760Z,1016.03
2018-02-15T09:25:36.771Z,1016.05
2018-02-15T09:26:46.484Z,1016.01
2018-02-15T09:27:56.452Z,1015.91
2018-02-15T09:29:06.775Z,1015.87
2018-02-15T09:30:16.760Z,1015.95
2018-02-15T09:31:26.722Z,1015.98
2018-02-15T09:32:36.726Z,1015.96
2018-02-15T09:33:46.714Z,1015.93
2018-02-15T09:34:56.445Z,1015.97
2018-02-15T09:36:06.413Z,1015.91
2018-02-15T09:37:16.394Z,1015.93
2018-02-15T09:38:26.390Z,1015.9
2018-02-15T09:39:36.383Z,1015.97
2018-02-15T09:40:46.096Z,1015.93
2018-02-15T09:41:55.854Z,1015.83
2018-02-15T09:43:05.826Z,1015.88
2018-02-15T09:44:15.529Z,1015.86
2018-02-15T09:45:25.491Z,1015.84
2018-02-15T09:46:35.209Z,1015.81
2018-02-15T09:47:45.164Z,1015.82
2018-02-15T09:48:54.888Z,1015.79
2018-02-15T09:50:04.618Z,1015.74
2018-02-15T09:51:14.631Z,1015.75
2018-02-15T09:52:24.345Z,1015.77
2018-02-15T09:53:34.437Z,1015.73
2018-02-15T09:54:44.148Z,1015.68
2018-02-15T09:55:54.174Z,1015.74
2018-02-15T09:57:04.169Z,1015.77
2018-02-15T09:58:13.918Z,1015.72
2018-02-15T09:59:23.148Z,1015.74
2018-02-15T10:00:33.128Z,1015.79
2018-02-15T10:01:42.873Z,1015.83
2018-02-15T10:02:52.847Z,1015.78
2018-02-15T10:04:02.294Z,1015.78
2018-02-15T10:05:12.284Z,1015.82
2018-02-15T10:06:21.741Z,1015.81
2018-02-15T10:07:31.693Z,1015.87
2018-02-15T10:08:41.684Z,1015.86
2018-02-15T10:09:51.653Z,1015.87
2018-02-15T10:11:01.647Z,1015.85
2018-02-15T10:12:11.661Z,1015.83
2018-02-15T10:13:21.650Z,1015.81
2018-02-15T10:14:31.400Z,1015.8
2018-02-15T10:15:41.618Z,1015.83
2018-02-15T10:16:51.321Z,1015.83
2018-02-15T10:18:01.032Z,1015.86
2018-02-15T10:19:10.995Z,1015.82
2018-02-15T10:20:20.706Z,1015.77
2018-02-15T10:21:30.676Z,1015.82
2018-02-15T10:22:40.648Z,1015.72
2018-02-15T10:23:50.495Z,1015.69
2018-02-15T10:25:00.220Z,1015.64
2018-02-15T10:26:09.932Z,1015.63
2018-02-15T10:27:19.912Z,1015.58
2018-02-15T10:28:29.910Z,1015.58
2018-02-15T10:29:39.886Z,1015.59
2018-02-15T10:30:49.598Z,1015.65
2018-02-15T10:31:59.560Z,1015.62
2018-02-15T10:33:09.817Z,1015.6
2018-02-15T10:34:19.833Z,1015.62
2018-02-15T10:35:29.308Z,1015.62
2018-02-15T10:36:39.303Z,1015.6
2018-02-15T10:37:49.333Z,1015.56
2018-02-15T10:38:59.304Z,1015.52
2018-02-15T10:40:09.034Z,1015.48
2018-02-15T10:41:18.749Z,1015.46
2018-02-15T10:42:28.713Z,1015.37
2018-02-15T10:43:38.415Z,1015.39
2018-02-15T10:44:48.376Z,1015.39
2018-02-15T10:45:58.430Z,1015.43
2018-02-15T10:47:08.132Z,1015.38
2018-02-15T10:48:18.092Z,1015.42
2018-02-15T10:49:28.053Z,1015.39
2018-02-15T10:50:38.010Z,1015.42
2018-02-15T10:51:47.732Z,1015.4
2018-02-15T10:52:57.466Z,1015.47
2018-02-15T10:54:07.430Z,1015.47
2018-02-15T10:55:17.141Z,1015.49
2018-02-15T10:56:26.924Z,1015.45
2018-02-15T10:57:36.730Z,1015.36
2018-02-15T10:58:46.699Z,1015.4
2018-02-15T10:59:56.674Z,1015.4
2018-02-15T11:01:06.656Z,1015.41
2018-02-15T11:02:16.666Z,1015.39
2018-02-15T11:03:26.729Z,1015.4
2018-02-15T11:04:36.718Z,1015.42
2018-02-15T11:05:46.747Z,1015.34
2018-02-15T11:06:56.854Z,1015.3
2018-02-15T11:08:06.883Z,1015.25
2018-02-15T11:09:16.877Z,1015.27
2018-02-15T11:10:26.905Z,1015.24
2018-02-15T11:11:36.872Z,1015.22
2018-02-15T11:12:46.886Z,1015.19
2018-02-15T11:13:56.853Z,1015.14
2018-02-15T11:15:06.832Z,1015.13
2018-02-15T11:16:16.536Z,1015.17
2018-02-15T11:17:26.499Z,1015.11
2018-02-15T11:18:36.752Z,1015.09
2018-02-15T11:19:46.736Z,1015.03
2018-02-15T11:20:56.730Z,1015.02
2018-02-15T11:22:06.785Z,1014.97
2018-02-15T11:23:16.742Z,1014.98
2018-02-15T11:24:26.698Z,1014.95
2018-02-15T11:25:36.697Z,1014.9
2018-02-15T11:26:46.844Z,1014.84
2018-02-15T11:27:56.813Z,1014.81
2018-02-15T11:29:06.790Z,1014.77
2018-02-15T11:30:16.232Z,1014.81
2018-02-15T11:31:26.217Z,1014.79
2018-02-15T11:32:36.199Z,1014.8
2018-02-15T11:33:46.040Z,1014.8
2018-02-15T11:34:56.020Z,1014.77
2018-02-15T11:36:06.012Z,1014.72
2018-02-15T11:37:15.975Z,1014.66
2018-02-15T11:38:25.941Z,1014.68
2018-02-15T11:39:35.913Z,1014.64
2018-02-15T11:40:45.874Z,1014.59
2018-02-15T11:41:55.598Z,1014.59
2018-02-15T11:43:05.556Z,1014.54
2018-02-15T11:44:15.257Z,1014.47
2018-02-15T11:45:24.970Z,1014.5
2018-02-15T11:46:35.253Z,1014.41
2018-02-15T11:47:45.215Z,1014.47
2018-02-15T11:48:54.926Z,1014.42
2018-02-15T11:50:04.903Z,1014.46
2018-02-15T11:51:14.602Z,1014.4
2018-02-15T11:52:24.613Z,1014.4
2018-02-15T11:53:34.571Z,1014.37
2018-02-15T11:54:44.547Z,1014.31
2018-02-15T11:55:54.318Z,1014.27
2018-02-15T11:57:04.303Z,1014.27
2018-02-15T11:58:14.008Z,1014.2
2018-02-15T11:59:23.971Z,1014.11
2018-02-15T12:00:33.947Z,1014.12
2018-02-15T12:01:43.950Z,1014.08
2018-02-15T12:02:53.916Z,1014.07
2018-02-15T12:04:03.885Z,1014.01
2018-02-15T12:05:13.858Z,1014.02
2018-02-15T12:06:23.907Z,1014.06
2018-02-15T12:07:33.614Z,1013.99
2018-02-15T12:08:43.331Z,1013.94
2018-02-15T12:09:53.355Z,1013.96
2018-02-15T12:11:03.322Z,1013.99
2018-02-15T12:12:13.021Z,1013.97
2018-02-15T12:13:22.726Z,1013.94
2018-02-15T12:14:31.953Z,1013.9
2018-02-15T12:15:41.946Z,1013.84
2018-02-15T12:16:51.906Z,1013.85
2018-02-15T12:18:01.623Z,1013.73
2018-02-15T12:19:11.653Z,1013.68
2018-02-15T12:20:21.623Z,1013.7
2018-02-15T12:21:31.641Z,1013.64
2018-02-15T12:22:41.088Z,1013.65
2018-02-15T12:23:51.073Z,1013.66
2018-02-15T12:25:00.851Z,1013.63
2018-02-15T12:26:10.861Z,1013.62
2018-02-15T12:27:21.002Z,1013.64
2018-02-15T12:28:30.980Z,1013.61
2018-02-15T12:29:40.942Z,1013.67
2018-02-15T12:30:50.926Z,1013.67
2018-02-15T12:32:00.890Z,1013.68
2018-02-15T12:33:10.336Z,1013.72
2018-02-15T12:34:20.299Z,1013.7
2018-02-15T12:35:30.288Z,1013.71
2018-02-15T12:36:40.296Z,1013.71
2018-02-15T12:37:50.260Z,1013.61
2018-02-15T12:38:59.976Z,1013.64
2018-02-15T12:40:09.687Z,1013.64
2018-02-15T12:41:19.670Z,1013.65
2018-02-15T12:42:29.121Z,1013.66
2018-02-15T12:43:39.080Z,1013.63
2018-02-15T12:44:49.067Z,1013.55
2018-02-15T12:45:58.791Z,1013.53
2018-02-15T12:47:08.783Z,1013.59
2018-02-15T12:48:18.507Z,1013.61
2018-02-15T12:49:28.202Z,1013.56
2018-02-15T12:50:38.165Z,1013.49
2018-02-15T12:51:48.143Z,1013.41
2018-02-15T12:52:57.948Z,1013.36
2018-02-15T12:54:07.404Z,1013.37
2018-02-15T12:55:16.868Z,1013.29
2018-02-15T12:56:26.841Z,1013.19
2018-02-15T12:57:36.553Z,1013.34
2018-02-15T12:58:46.527Z,1013.21
2018-02-15T12:59:56.498Z,1013.27
2018-02-15T13:01:06.538Z,1013.22
2018-02-15T13:02:16.245Z,1013.21
2018-02-15T13:03:26.205Z,1013.2
2018-02-15T13:04:36.187Z,1013.18
2018-02-15T13:05:46.175Z,1013.19
2018-02-15T13:06:56.123Z,1013.24
2018-02-15T13:08:06.085Z,1013.17
2018-02-15T13:09:15.856Z,1013.15
2018-02-15T13:10:25.817Z,1013.17
2018-02-15T13:11:35.789Z,1013.1
2018-02-15T13:12:45.771Z,1013.13
2018-02-15T13:13:55.727Z,1013.12
2018-02-15T13:15:04.890Z,1013.1
2018-02-15T13:16:14.863Z,1013.14
2018-02-15T13:17:24.833Z,1013.16
2018-02-15T13:18:34.567Z,1013.16
2018-02-15T13:19:44.302Z,1013.08
2018-02-15T13:20:54.266Z,1013.05
2018-02-15T13:22:04.290Z,1013.05
2018-02-15T13:23:13.998Z,1013.08
2018-02-15T13:24:24.076Z,1013.06
2018-02-15T13:25:34.047Z,1013.07
2018-02-15T13:26:44.000Z,1013.1
2018-02-15T13:27:53.711Z,1013.07
2018-02-15T13:29:03.673Z,1013.1
2018-02-15T13:30:13.416Z,1013.09
2018-02-15T13:31:23.389Z,1013.06
2018-02-15T13:32:33.358Z,1012.99
2018-02-15T13:33:43.057Z,1012.99
2018-02-15T13:34:52.772Z,1012.96
2018-02-15T13:36:02.748Z,1012.96
2018-02-15T13:37:12.723Z,1012.89
2018-02-15T13:38:22.202Z,1012.86
2018-02-15T13:39:32.229Z,1012.79
2018-02-15T13:40:42.273Z,1012.76
2018-02-15T13:41:51.992Z,1012.73
2018-02-15T13:43:01.961Z,1012.76
2018-02-15T13:44:11.685Z,1012.76
2018-02-15T13:45:21.635Z,1012.78
2018-02-15T13:46:31.359Z,1012.74
2018-02-15T13:47:41.340Z,1012.76
2018-02-15T13:48:51.306Z,1012.78
2018-02-15T13:50:01.261Z,1012.76
2018-02-15T13:51:11.230Z,1012.74
2018-02-15T13:52:20.946Z,1012.77
2018-02-15T13:53:30.915Z,1012.69
2018-02-15T13:54:40.902Z,1012.69
2018-02-15T13:55:50.868Z,1012.67
2018-02-15T13:57:00.828Z,1012.65
2018-02-15T13:58:10.806Z,1012.61
2018-02-15T13:59:20.790Z,1012.62
2018-02-15T14:00:30.771Z,1012.64
2018-02-15T14:01:40.738Z,1012.58
2018-02-15T14:02:50.704Z,1012.59
2018-02-15T14:04:00.692Z,1012.61
2018-02-15T14:05:10.394Z,1012.62
2018-02-15T14:06:20.345Z,1012.56
2018-02-15T14:07:30.308Z,1012.59